Time;durP1;ratioP1;P1;durP2;ratioP2;P2;SDS_P1;SDS_P2;PMS_P1;PMS_P2;Temp;Humidity;BMP_temperature;BMP_pressure;BME280_temperature;BME280_humidity;BME280_pressure;Samples;Min_cycle;Max_cycle;Signal;HPM_P1;HPM_P2
2022/08/17 00:01:16;;;;;;;6.30;5.47;;;;;;;28.32;55.15;99530.34;5071340;28;20709;-76
2022/08/17 00:03:44;;;;;;;6.72;5.20;;;;;;;28.43;55.37;99543.81;5070977;28;20230;-77
2022/08/17 00:06:14;;;;;;;8.15;5.22;;;;;;;27.74;55.41;99432.84;5085260;28;20194;-77
2022/08/17 00:08:43;;;;;;;5.32;4.93;;;;;;;28.36;55.51;99526.50;5041394;28;20194;-76
2022/08/17 00:11:13;;;;;;;5.53;4.93;;;;;;;28.33;55.25;99519.53;5091088;28;20650;-76
2022/08/17 00:13:44;;;;;;;5.32;4.90;;;;;;;28.54;55.31;99538.59;5045092;28;20219;-77
2022/08/17 00:16:15;;;;;;;6.03;4.88;;;;;;;28.56;55.61;99526.00;5070699;28;20669;-76
2022/08/17 00:18:42;;;;;;;5.15;4.65;;;;;;;28.29;55.26;99499.38;5072286;28;20813;-76
2022/08/17 00:21:10;;;;;;;9.18;4.68;;;;;;;28.42;55.84;99539.41;5090494;28;20206;-77
2022/08/17 00:23:37;;;;;;;6.28;4.70;;;;;;;28.41;55.46;99519.91;5090544;28;20757;-76
2022/08/17 00:26:04;;;;;;;6.72;5.05;;;;;;;28.23;56.17;99529.13;5088999;28;20571;-77
2022/08/17 00:28:31;;;;;;;5.30;4.80;;;;;;;28.05;56.20;99509.81;5081995;28;20207;-77
2022/08/17 00:31:02;;;;;;;6.35;5.47;;;;;;;28.31;55.91;99541.94;5070482;28;20207;-77
2022/08/17 00:33:31;;;;;;;7.50;5.20;;;;;;;28.19;55.95;99526.75;5070339;28;20222;-77
2022/08/17 00:35:58;;;;;;;8.65;5.47;;;;;;;28.21;56.09;99540.84;5070241;28;20201;-77
2022/08/17 00:38:26;;;;;;;5.45;4.95;;;;;;;27.95;57.04;99532.72;5071224;28;20229;-77
2022/08/17 00:40:55;;;;;;;6.88;4.93;;;;;;;27.97;57.30;99517.47;5071670;28;20198;-77
2022/08/17 00:43:29;;;;;;;6.78;5.00;;;;;;;27.81;58.11;99532.75;5074667;28;20246;-77
2022/08/17 00:45:56;;;;;;;6.65;5.20;;;;;;;27.45;58.81;99490.66;5090405;28;20684;-77
2022/08/17 00:48:24;;;;;;;4.70;4.35;;;;;;;27.85;58.63;99533.41;5079376;28;20195;-76
2022/08/17 00:50:57;;;;;;;8.95;5.18;;;;;;;27.59;59.71;99537.72;5070123;28;20639;-77
2022/08/17 00:53:25;;;;;;;5.38;4.88;;;;;;;27.50;60.27;99533.81;5070032;28;20221;-77
2022/08/17 00:55:53;;;;;;;4.72;4.32;;;;;;;27.57;60.71;99532.50;5082954;28;20271;-76
2022/08/17 00:58:20;;;;;;;4.68;4.28;;;;;;;27.63;60.68;99527.72;5074841;28;20198;-76
2022/08/17 01:00:48;;;;;;;7.75;4.63;;;;;;;27.60;60.89;99534.13;5086680;28;20208;-78
2022/08/17 01:03:19;;;;;;;5.97;4.70;;;;;;;27.60;61.49;99523.47;5069901;28;20195;-78
2022/08/17 01:05:51;;;;;;;9.00;4.47;;;;;;;27.74;61.27;99533.25;5078940;28;20248;-77
2022/08/17 01:08:21;;;;;;;4.93;4.50;;;;;;;27.69;61.48;99533.53;5049235;28;20194;-77
2022/08/17 01:10:51;;;;;;;5.45;4.93;;;;;;;27.89;60.79;99540.25;5082078;28;20209;-77
2022/08/17 01:13:19;;;;;;;5.35;4.85;;;;;;;27.70;61.48;99531.72;5089644;28;20595;-77
2022/08/17 01:15:48;;;;;;;6.45;4.85;;;;;;;27.68;62.04;99541.63;5089890;28;20226;-77
2022/08/17 01:18:15;;;;;;;5.38;4.57;;;;;;;27.78;61.64;99543.63;5081876;28;20214;-77
2022/08/17 01:20:47;;;;;;;9.38;4.35;;;;;;;27.68;62.51;99531.84;5070287;28;20203;-76
2022/08/17 01:23:16;;;;;;;10.82;4.72;;;;;;;27.58;62.89;99514.69;5069752;28;20190;-76
2022/08/17 01:25:43;;;;;;;5.45;4.50;;;;;;;27.51;63.49;99530.22;5034093;28;20202;-77
2022/08/17 01:28:10;;;;;;;5.03;4.63;;;;;;;27.52;63.28;99523.09;5082729;28;20205;-77
2022/08/17 01:30:37;;;;;;;4.97;4.13;;;;;;;27.47;63.95;99514.53;5092958;28;20202;-76
2022/08/17 01:33:04;;;;;;;9.90;4.88;;;;;;;27.70;62.67;99529.91;5093592;28;20197;-76
2022/08/17 01:35:31;;;;;;;6.53;5.18;;;;;;;27.61;63.38;99519.88;5094027;28;20236;-78
2022/08/17 01:37:58;;;;;;;5.18;4.55;;;;;;;27.57;63.21;99519.16;5093379;28;20234;-76
2022/08/17 01:40:34;;;;;;;5.40;4.90;;;;;;;27.45;64.05;99513.78;5093435;28;20675;-75
2022/08/17 01:43:06;;;;;;;5.22;4.75;;;;;;;27.54;63.82;99514.03;5091283;28;20646;-76
2022/08/17 01:45:39;;;;;;;5.55;5.05;;;;;;;27.53;63.51;99507.03;5073421;28;20203;-76
2022/08/17 01:48:06;;;;;;;5.32;4.93;;;;;;;27.44;64.42;99514.69;5090268;28;20194;-76
2022/08/17 01:50:36;;;;;;;7.00;5.15;;;;;;;27.44;64.77;99506.69;5057500;28;20198;-76
2022/08/17 01:53:08;;;;;;;7.63;4.82;;;;;;;27.48;64.98;99506.44;5093073;28;20198;-76
2022/08/17 01:55:41;;;;;;;5.18;4.55;;;;;;;27.36;65.79;99503.69;5085828;28;20207;-76
2022/08/17 01:58:08;;;;;;;4.93;4.53;;;;;;;27.47;65.26;99495.88;5073148;28;20191;-76
2022/08/17 02:00:36;;;;;;;7.68;5.20;;;;;;;27.45;65.14;99492.47;5074240;28;20195;-76
2022/08/17 02:03:04;;;;;;;4.93;4.43;;;;;;;27.36;66.19;99501.84;5057928;28;20194;-76
2022/08/17 02:05:31;;;;;;;4.90;4.40;;;;;;;27.30;66.55;99504.06;5073257;28;20210;-76
2022/08/17 02:07:58;;;;;;;9.73;4.68;;;;;;;27.22;67.33;99506.38;5089860;28;20252;-76
2022/08/17 02:10:26;;;;;;;10.18;5.18;;;;;;;27.34;66.98;99502.91;5092877;28;20230;-76
2022/08/17 02:12:54;;;;;;;5.43;4.93;;;;;;;27.42;66.90;99506.81;5093101;28;20213;-76
2022/08/17 02:15:22;;;;;;;8.05;4.82;;;;;;;27.47;66.67;99498.53;5040800;28;20227;-76
2022/08/17 02:17:48;;;;;;;7.20;5.20;;;;;;;27.33;67.20;99503.84;5074906;28;20202;-75
2022/08/17 02:20:15;;;;;;;5.78;4.60;;;;;;;27.30;67.26;99515.56;5091689;28;20207;-76
2022/08/17 02:22:44;;;;;;;6.03;4.82;;;;;;;27.32;67.69;99504.81;5092988;28;20197;-75
2022/08/17 02:25:13;;;;;;;5.75;5.13;;;;;;;27.20;67.76;99487.81;5080735;28;20203;-75
2022/08/17 02:27:40;;;;;;;4.93;4.50;;;;;;;27.18;68.22;99505.69;5072846;28;20195;-75
2022/08/17 02:30:12;;;;;;;6.43;5.10;;;;;;;27.22;68.54;99512.50;5090970;28;20221;-76
2022/08/17 02:32:39;;;;;;;5.07;4.63;;;;;;;26.89;69.56;99498.66;5092711;28;20205;-75
2022/08/17 02:35:07;;;;;;;6.88;5.00;;;;;;;26.99;70.37;99516.63;5086586;28;20313;-76
2022/08/17 02:37:35;;;;;;;5.15;4.53;;;;;;;26.99;70.42;99498.00;5075829;28;20226;-77
2022/08/17 02:40:02;;;;;;;6.40;4.10;;;;;;;26.43;71.01;99434.06;5052820;28;20748;-75
2022/08/17 02:42:34;;;;;;;13.40;5.10;;;;;;;26.84;71.33;99506.91;5076357;28;20194;-75
2022/08/17 02:45:01;;;;;;;8.48;5.07;;;;;;;26.82;71.60;99511.47;5092343;28;20681;-76
2022/08/17 02:47:30;;;;;;;6.25;4.60;;;;;;;27.01;70.92;99508.53;5092105;28;20205;-76
2022/08/17 02:49:57;;;;;;;8.63;4.50;;;;;;;26.73;71.57;99498.66;5091104;28;20205;-76
2022/08/17 02:52:24;;;;;;;4.65;4.25;;;;;;;26.73;72.08;99517.28;5090529;28;20190;-75
2022/08/17 02:54:51;;;;;;;7.82;5.15;;;;;;;26.48;73.72;99522.34;5075394;28;20295;-76
2022/08/17 02:57:18;;;;;;;5.35;4.85;;;;;;;26.27;73.93;99515.63;5085794;28;20198;-76
2022/08/17 02:59:45;;;;;;;5.07;4.50;;;;;;;26.50;73.07;99531.13;5076251;28;20203;-76
2022/08/17 03:02:12;;;;;;;5.72;4.35;;;;;;;26.49;73.25;99532.06;5072392;28;20203;-76
2022/08/17 03:04:40;;;;;;;6.65;4.90;;;;;;;26.39;73.78;99514.94;5072140;28;20206;-76
2022/08/17 03:07:07;;;;;;;8.88;4.72;;;;;;;26.33;72.83;99483.38;5050859;28;20262;-76
2022/08/17 03:09:34;;;;;;;7.05;4.57;;;;;;;26.55;73.18;99526.38;5089751;28;20202;-77
2022/08/17 03:12:05;;;;;;;8.07;5.30;;;;;;;26.58;72.95;99527.03;5092266;28;20194;-76
2022/08/17 03:14:32;;;;;;;5.22;4.80;;;;;;;26.45;73.45;99541.16;5092065;28;20315;-76
2022/08/17 03:17:00;;;;;;;7.03;4.63;;;;;;;26.59;72.54;99534.09;5091935;28;20221;-76
2022/08/17 03:19:26;;;;;;;6.00;4.60;;;;;;;26.61;72.66;99532.19;5081933;28;20886;-76
2022/08/17 03:21:55;;;;;;;6.45;4.57;;;;;;;26.59;72.85;99522.59;5084997;28;20202;-76
2022/08/17 03:24:22;;;;;;;4.45;4.15;;;;;;;26.57;72.88;99522.69;5051668;28;20192;-78
2022/08/17 03:26:48;;;;;;;6.38;4.55;;;;;;;25.91;73.41;99441.53;5052748;28;20200;-75
2022/08/17 03:29:18;;;;;;;6.97;4.55;;;;;;;26.32;73.36;99524.22;5072675;28;20202;-75
2022/08/17 03:31:45;;;;;;;5.07;4.53;;;;;;;26.36;73.21;99520.44;5056873;28;20186;-76
2022/08/17 03:34:12;;;;;;;4.93;4.45;;;;;;;26.40;73.75;99559.16;5091156;28;20198;-76
2022/08/17 03:36:39;;;;;;;5.70;4.07;;;;;;;26.48;73.22;99562.25;5090653;28;20600;-76
2022/08/17 03:39:07;;;;;;;4.90;4.50;;;;;;;26.31;74.60;99549.09;5089342;28;20213;-75
2022/08/17 03:41:35;;;;;;;5.85;4.53;;;;;;;26.35;74.15;99555.94;5090447;28;20194;-76
2022/08/17 03:44:02;;;;;;;4.43;4.03;;;;;;;26.33;74.27;99553.34;5075012;28;20207;-76
2022/08/17 03:57:30;;;;;;;4.75;4.25;;;;;;;27.07;69.63;99572.91;5055958;28;20194;-75
2022/08/17 03:59:56;;;;;;;4.50;4.20;;;;;;;27.53;67.04;99578.09;5070735;28;20218;-75
2022/08/17 04:02:27;;;;;;;4.63;3.90;;;;;;;27.68;65.82;99571.81;5071641;28;20198;-75
2022/08/17 04:04:54;;;;;;;11.90;4.50;;;;;;;27.75;65.31;99581.13;5089940;28;20880;-75
2022/08/17 04:07:24;;;;;;;5.07;4.25;;;;;;;27.92;64.18;99583.56;5079934;28;20194;-76
2022/08/17 04:09:52;;;;;;;4.43;4.00;;;;;;;28.11;63.10;99583.22;5081317;28;20199;-76
2022/08/17 04:12:20;;;;;;;5.70;4.18;;;;;;;28.06;62.53;99564.88;5054494;28;20220;-76
2022/08/17 04:14:47;;;;;;;4.85;4.28;;;;;;;28.05;62.21;99587.13;5090624;28;20218;-76
2022/08/17 04:17:14;;;;;;;5.35;4.20;;;;;;;27.80;63.08;99579.00;5050546;28;20663;-75
2022/08/17 04:19:41;;;;;;;4.18;3.78;;;;;;;28.12;61.17;99552.09;5070699;28;20191;-76
2022/08/17 04:22:08;;;;;;;6.95;4.65;;;;;;;28.38;60.46;99580.59;5061449;28;20650;-76
2022/08/17 04:24:35;;;;;;;7.32;3.88;;;;;;;28.75;59.61;99587.91;5078185;28;20209;-76
2022/08/17 04:27:03;;;;;;;4.05;3.75;;;;;;;29.02;58.24;99591.34;5070398;28;20199;-75
2022/08/17 04:29:30;;;;;;;4.72;4.30;;;;;;;28.61;58.91;99593.25;5088833;28;20194;-76
2022/08/17 04:31:57;;;;;;;6.78;4.45;;;;;;;28.49;59.25;99599.41;5090283;28;20202;-74
2022/08/17 04:34:23;;;;;;;4.50;4.10;;;;;;;28.82;58.26;99607.88;5090497;28;20200;-74
2022/08/17 04:36:51;;;;;;;4.05;3.70;;;;;;;29.13;57.46;99603.97;5088119;28;20238;-71
2022/08/17 04:39:18;;;;;;;7.35;4.50;;;;;;;29.55;56.33;99613.50;5071296;28;20195;-74
2022/08/17 04:44:29;;;;;;;6.93;4.40;;;;;;;29.02;53.98;99436.50;5045135;28;20237;-74
2022/08/17 04:46:56;;;;;;;10.68;3.92;;;;;;;29.66;54.20;99597.56;5036106;28;20203;-78
2022/08/17 04:49:23;;;;;;;12.27;4.30;;;;;;;29.61;55.17;99607.72;5028314;28;20237;-75
2022/08/17 04:51:49;;;;;;;6.75;4.05;;;;;;;28.94;56.27;99601.69;5028012;28;20203;-74
2022/08/17 04:54:20;;;;;;;8.15;3.90;;;;;;;29.23;55.92;99612.19;5030390;28;20188;-74
2022/08/17 04:56:48;;;;;;;4.82;3.70;;;;;;;29.78;54.23;99612.72;5025865;28;20228;-74
2022/08/17 04:59:17;;;;;;;4.82;4.32;;;;;;;30.01;53.50;99590.56;5008560;28;20894;-74
2022/08/17 05:01:48;;;;;;;4.38;3.92;;;;;;;30.02;53.90;99616.34;5023233;28;20209;-75
2022/08/17 05:04:17;;;;;;;4.45;3.90;;;;;;;30.10;53.28;99605.09;5035615;28;20200;-74
2022/08/17 05:06:45;;;;;;;4.93;4.40;;;;;;;30.54;52.22;99611.69;5034230;28;20204;-74
2022/08/17 05:09:12;;;;;;;6.70;5.60;;;;;;;30.42;52.19;99616.13;5030702;28;20731;-74
2022/08/17 05:11:39;;;;;;;4.10;3.70;;;;;;;30.54;51.39;99620.56;5026623;28;20229;-73
2022/08/17 05:14:06;;;;;;;7.57;4.55;;;;;;;30.17;51.59;99601.00;5026690;28;20195;-76
2022/08/17 05:16:33;;;;;;;4.57;4.13;;;;;;;30.46;51.11;99628.31;5033356;28;20226;-75
2022/08/17 05:19:01;;;;;;;4.78;3.90;;;;;;;30.47;51.44;99641.56;5038547;28;20211;-75
2022/08/17 05:21:28;;;;;;;5.32;4.18;;;;;;;30.20;52.00;99629.34;5042755;28;20199;-75
2022/08/17 05:23:57;;;;;;;12.13;3.70;;;;;;;29.61;53.69;99622.91;5072443;28;20587;-74
2022/08/17 05:26:26;;;;;;;9.70;4.35;;;;;;;29.75;54.13;99625.47;5070669;28;20301;-75
2022/08/17 05:28:52;;;;;;;4.95;3.97;;;;;;;29.51;54.44;99622.69;5070013;28;20243;-81
2022/08/17 05:31:19;;;;;;;5.10;4.00;;;;;;;29.39;55.05;99628.91;5069798;28;20207;-75
2022/08/17 05:33:46;;;;;;;9.43;4.38;;;;;;;29.61;54.87;99618.41;5069778;28;20205;-75
2022/08/17 05:36:15;;;;;;;7.57;3.75;;;;;;;29.58;55.13;99618.63;5069608;28;20230;-74
2022/08/17 05:38:42;;;;;;;4.38;4.03;;;;;;;29.02;56.45;99617.19;5069659;28;20195;-75
2022/08/17 05:41:10;;;;;;;12.45;4.00;;;;;;;28.79;58.07;99618.72;5069721;28;20194;-74
2022/08/17 05:43:38;;;;;;;4.50;3.50;;;;;;;28.85;58.29;99612.16;5055930;28;20195;-74
2022/08/17 05:46:10;;;;;;;5.18;4.07;;;;;;;29.01;57.78;99618.13;5069267;28;20199;-74
2022/08/17 05:48:42;;;;;;;4.40;4.00;;;;;;;28.93;58.40;99617.81;5069012;28;20198;-75
2022/08/17 05:51:42;;;;;;;7.22;4.68;;;;;;;29.07;58.14;99614.22;5056674;28;20207;-75
2022/08/17 05:54:21;;;;;;;4.47;4.10;;;;;;;28.90;59.19;99616.19;5019380;28;20291;-75
2022/08/17 05:57:17;;;;;;;4.75;4.20;;;;;;;28.89;58.82;99619.84;5065788;28;20229;-75
2022/08/17 05:59:57;;;;;;;4.90;4.05;;;;;;;28.62;59.65;99626.97;5068775;28;20215;-74
2022/08/17 06:02:36;;;;;;;6.53;4.28;;;;;;;28.72;60.60;99620.09;5068726;28;20678;-75
2022/08/17 06:05:14;;;;;;;4.40;4.10;;;;;;;28.95;60.12;99630.09;5068740;28;20199;-75
2022/08/17 06:07:48;;;;;;;5.47;4.45;;;;;;;29.03;58.67;99633.13;5048767;28;20208;-75
2022/08/17 06:10:20;;;;;;;5.15;4.18;;;;;;;28.95;59.02;99619.44;5060869;28;20583;-75
2022/08/17 06:12:58;;;;;;;7.65;4.10;;;;;;;28.92;58.92;99635.66;5056608;28;20317;-76
2022/08/17 06:15:31;;;;;;;4.65;3.75;;;;;;;29.04;58.38;99616.13;5068874;28;20230;-75
2022/08/17 06:18:01;;;;;;;4.95;4.45;;;;;;;29.30;58.77;99638.41;5072381;28;20206;-77
2022/08/17 06:20:35;;;;;;;4.55;3.83;;;;;;;29.24;58.52;99627.25;5071337;28;20621;-76
2022/08/17 06:23:09;;;;;;;5.20;3.70;;;;;;;29.27;57.05;99608.38;5060180;28;20264;-74
2022/08/17 06:25:42;;;;;;;5.13;4.20;;;;;;;29.36;58.01;99634.47;5072784;28;20209;-75
2022/08/17 06:28:14;;;;;;;9.75;4.40;;;;;;;29.33;58.35;99640.00;5062321;28;20694;-75
2022/08/17 06:30:47;;;;;;;6.72;4.10;;;;;;;29.24;58.08;99637.94;5066604;28;20199;-76
2022/08/17 06:33:21;;;;;;;5.65;4.50;;;;;;;29.75;56.96;99639.66;5061728;28;20202;-76
2022/08/17 06:36:01;;;;;;;5.30;3.97;;;;;;;29.47;57.40;99647.91;5072057;28;20610;-76
2022/08/17 06:38:40;;;;;;;5.38;4.45;;;;;;;29.50;57.10;99645.03;5071982;28;20202;-77
2022/08/17 06:41:18;;;;;;;8.00;4.78;;;;;;;29.98;56.42;99644.28;5071790;28;20253;-78
2022/08/17 06:44:02;;;;;;;9.02;4.28;;;;;;;30.04;56.17;99639.47;5071932;28;20207;-75
2022/08/17 06:46:36;;;;;;;4.43;4.05;;;;;;;29.93;56.00;99608.97;5058717;28;20662;-78
2022/08/17 06:49:15;;;;;;;7.07;4.95;;;;;;;29.95;55.45;99633.81;5071904;28;20671;-79
2022/08/17 06:51:49;;;;;;;4.57;4.18;;;;;;;30.00;55.78;99636.97;5051695;28;20195;-74
2022/08/17 06:54:25;;;;;;;7.93;4.35;;;;;;;30.26;54.68;99643.13;5066498;28;20584;-76
2022/08/17 06:56:58;;;;;;;6.20;4.50;;;;;;;30.28;54.82;99635.00;5036629;28;20679;-78
2022/08/17 06:59:32;;;;;;;4.97;4.00;;;;;;;30.33;54.38;99638.16;5071309;28;20689;-77
2022/08/17 07:02:04;;;;;;;5.72;4.10;;;;;;;30.34;54.32;99634.53;5071685;28;20228;-77
2022/08/17 07:04:33;;;;;;;8.13;4.25;;;;;;;30.34;54.13;99642.56;5071663;28;20609;-81
2022/08/17 07:08:00;;;;;;;5.00;4.47;;;;;;;30.50;53.76;99645.88;5071353;28;20252;-80
2022/08/17 07:09:56;;;;;;;4.45;4.00;;;;;;;30.33;53.97;99643.53;5060066;28;20253;-81
2022/08/17 07:12:32;;;;;;;6.35;3.95;;;;;;;30.28;54.58;99643.03;5055468;28;20202;-76
2022/08/17 07:15:07;;;;;;;5.88;3.83;;;;;;;30.36;54.38;99632.59;5071209;28;20205;-76
2022/08/17 07:17:35;;;;;;;4.45;3.75;;;;;;;30.46;53.93;99644.38;5056969;28;20194;-76
2022/08/17 07:20:07;;;;;;;5.32;4.30;;;;;;;30.77;53.56;99635.75;5071186;28;20199;-76
2022/08/17 07:22:42;;;;;;;9.27;4.35;;;;;;;30.62;51.38;99636.06;5071013;28;20198;-76
2022/08/17 07:25:17;;;;;;;7.55;4.47;;;;;;;30.40;52.18;99636.75;5071338;28;20217;-76
2022/08/17 07:27:49;;;;;;;7.60;4.30;;;;;;;30.58;52.09;99635.44;5070279;28;20662;-78
2022/08/17 07:30:19;;;;;;;8.73;4.05;;;;;;;30.71;51.02;99633.56;5070755;28;20263;-76
2022/08/17 07:32:51;;;;;;;4.28;3.88;;;;;;;30.87;50.33;99654.66;5070919;28;20206;-74
2022/08/17 07:35:21;;;;;;;5.18;3.80;;;;;;;30.69;51.69;99632.81;5070881;28;20681;-75
2022/08/17 07:37:53;;;;;;;5.03;4.05;;;;;;;31.14;51.08;99649.09;5070813;28;20318;-78
2022/08/17 07:40:32;;;;;;;4.80;4.28;;;;;;;31.17;49.81;99624.72;5070959;28;20202;-76
2022/08/17 07:43:14;;;;;;;5.43;3.75;;;;;;;30.97;49.54;99645.84;5070647;28;20205;-76
2022/08/17 07:48:40;;;;;;;14.25;3.80;;;;;;;31.14;49.49;99651.75;5059281;28;20283;-76
2022/08/17 07:51:25;;;;;;;5.25;4.43;;;;;;;31.31;48.94;99627.19;5070569;28;20202;-76
2022/08/17 07:53:53;;;;;;;4.40;3.83;;;;;;;31.16;49.58;99636.41;5070356;28;20678;-75
2022/08/17 07:56:40;;;;;;;3.85;3.55;;;;;;;31.48;48.88;99626.72;5070317;28;20229;-74
2022/08/17 07:59:17;;;;;;;5.10;3.58;;;;;;;31.59;48.03;99632.13;5070399;28;20206;-75
2022/08/17 08:01:47;;;;;;;3.78;3.35;;;;;;;31.34;48.10;99635.84;5070690;28;20202;-72
2022/08/17 08:04:26;;;;;;;5.53;3.50;;;;;;;31.53;47.98;99638.00;5066351;28;20202;-75
2022/08/17 08:06:56;;;;;;;4.18;3.30;;;;;;;31.42;48.41;99613.81;5070080;28;20742;-74
2022/08/17 08:38:29;;;;;;;9.43;4.10;;;;;;;31.29;51.98;99621.94;5107538;27;20537;-74
2022/08/17 08:41:15;;;;;;;8.27;4.10;;;;;;;31.63;51.37;99601.44;5107737;28;20254;-73
2022/08/17 08:43:54;;;;;;;5.53;3.80;;;;;;;31.76;48.63;99590.56;5107413;28;20734;-74
2022/08/17 08:46:30;;;;;;;6.85;4.22;;;;;;;31.85;48.60;99605.94;5107451;28;20669;-73
2022/08/17 08:49:41;;;;;;;4.00;3.60;;;;;;;32.07;47.35;99610.47;5107609;28;20203;-73
2022/08/17 08:52:22;;;;;;;7.05;4.00;;;;;;;32.22;46.61;99588.56;5064277;28;20208;-73
2022/08/17 08:54:58;;;;;;;7.35;4.43;;;;;;;31.96;47.08;99544.22;5064324;28;20198;-74
2022/08/17 08:57:31;;;;;;;4.13;3.80;;;;;;;32.38;46.59;99612.31;5064231;28;20363;-73
2022/08/17 09:00:14;;;;;;;3.90;3.50;;;;;;;32.68;45.86;99615.16;5063994;28;20589;-73
2022/08/17 09:03:20;;;;;;;6.53;4.13;;;;;;;32.44;45.31;99611.81;5064139;28;20202;-74
2022/08/17 09:06:07;;;;;;;9.77;3.80;;;;;;;32.66;44.95;99614.47;5004515;28;20840;-76
2022/08/17 09:08:48;;;;;;;7.20;4.22;;;;;;;32.74;45.37;99614.69;5004385;28;20202;-75
2022/08/17 09:11:22;;;;;;;4.78;3.60;;;;;;;32.63;45.94;99612.03;4974482;28;20201;-74
2022/08/17 09:13:57;;;;;;;10.18;3.58;;;;;;;32.48;44.95;99613.28;5004404;28;20200;-77
2022/08/17 09:16:28;;;;;;;4.10;3.80;;;;;;;32.74;44.96;99616.50;4995338;28;20220;-74
2022/08/17 09:19:03;;;;;;;4.68;3.53;;;;;;;32.72;44.35;99618.44;4984754;28;20284;-72
2022/08/17 09:21:39;;;;;;;6.40;3.60;;;;;;;32.91;44.78;99624.00;4989794;28;20201;-72
2022/08/17 09:24:11;;;;;;;5.68;4.18;;;;;;;32.99;44.09;99610.78;5001795;28;20719;-72
2022/08/17 09:26:45;;;;;;;3.92;3.63;;;;;;;32.74;44.44;99612.00;4995027;28;20303;-73
2022/08/17 09:29:15;;;;;;;5.20;3.60;;;;;;;32.92;43.66;99620.34;5028207;28;20210;-73
2022/08/17 09:31:50;;;;;;;8.45;3.80;;;;;;;32.59;45.12;99597.16;5043202;28;20207;-72
2022/08/17 09:34:24;;;;;;;5.30;3.58;;;;;;;32.84;44.68;99612.91;5041607;28;20194;-72
2022/08/17 09:37:00;;;;;;;5.40;3.65;;;;;;;32.81;44.30;99613.19;5032123;28;20238;-74
2022/08/17 09:39:34;;;;;;;7.03;3.97;;;;;;;32.86;44.67;99602.03;4990313;28;20196;-75
2022/08/17 09:42:11;;;;;;;4.88;3.65;;;;;;;33.08;44.77;99601.03;5053050;28;20195;-75
2022/08/17 09:44:41;;;;;;;7.68;4.00;;;;;;;33.46;44.22;99619.31;5106376;28;20200;-75
2022/08/17 09:47:16;;;;;;;5.90;3.40;;;;;;;33.42;43.63;99618.72;5106208;28;20201;-72
2022/08/17 09:49:49;;;;;;;6.05;3.55;;;;;;;33.20;43.98;99621.53;5089526;28;20204;-75
2022/08/17 09:52:20;;;;;;;5.22;3.97;;;;;;;33.47;43.97;99600.31;5072103;28;20693;-75
2022/08/17 09:54:50;;;;;;;4.70;4.30;;;;;;;33.63;44.00;99599.88;5053472;28;20666;-75
2022/08/17 09:57:28;;;;;;;6.75;3.90;;;;;;;33.57;43.11;99606.59;5072298;28;20294;-74
2022/08/17 10:00:17;;;;;;;4.53;3.63;;;;;;;33.55;43.56;99605.03;5072166;28;20209;-74
2022/08/17 10:03:28;;;;;;;8.40;4.32;;;;;;;33.77;43.45;99611.13;5072077;28;20198;-75
2022/08/17 10:06:03;;;;;;;6.13;4.28;;;;;;;33.67;43.39;99590.56;5071940;28;20197;-76
2022/08/17 10:08:39;;;;;;;5.22;3.90;;;;;;;33.50;43.15;99600.06;5072032;28;20657;-75
2022/08/17 10:12:14;;;;;;;4.13;3.72;;;;;;;33.86;43.33;99596.00;5072249;28;20206;-75
2022/08/17 10:14:23;;;;;;;6.60;4.07;;;;;;;33.78;43.07;99598.53;5072149;28;20709;-75
2022/08/17 10:16:58;;;;;;;6.50;4.00;;;;;;;33.71;44.03;99602.75;5071856;28;20445;-75
2022/08/17 10:19:33;;;;;;;4.35;3.95;;;;;;;33.59;42.87;99599.25;5071834;28;20198;-75
2022/08/17 10:27:47;;;;;;;8.20;4.10;;;;;;;33.51;42.92;99591.00;5071841;28;20644;-75
2022/08/17 10:30:18;;;;;;;7.65;4.00;;;;;;;33.69;42.05;99588.56;5053025;28;20193;-75
2022/08/17 10:32:51;;;;;;;6.97;3.58;;;;;;;33.78;41.55;99579.69;5071663;28;20202;-75
2022/08/17 10:35:32;;;;;;;3.78;3.58;;;;;;;33.81;41.98;99565.97;5071590;28;20190;-75
2022/08/17 10:38:19;;;;;;;4.60;4.25;;;;;;;34.08;41.53;99581.47;5071136;28;20245;-75
2022/08/17 10:40:51;;;;;;;3.90;3.40;;;;;;;34.05;41.22;99579.06;5071357;28;20579;-75
2022/08/17 10:43:31;;;;;;;3.63;3.33;;;;;;;33.72;41.29;99540.72;5071716;28;20205;-75
2022/08/17 10:46:08;;;;;;;5.03;3.80;;;;;;;33.97;40.79;99565.44;5071465;28;20198;-74
2022/08/17 10:48:37;;;;;;;5.00;3.80;;;;;;;33.81;41.38;99566.81;5068897;28;20202;-75
2022/08/17 10:51:07;;;;;;;4.68;3.08;;;;;;;33.36;40.26;99496.41;5071544;28;20644;-75
2022/08/17 10:53:51;;;;;;;4.65;3.85;;;;;;;33.92;41.04;99565.88;5071533;28;20576;-75
2022/08/17 10:56:22;;;;;;;4.75;4.35;;;;;;;34.03;41.35;99576.53;5071045;28;20686;-75
2022/08/17 10:58:53;;;;;;;8.85;4.05;;;;;;;34.14;40.52;99572.91;5070610;28;20226;-75
2022/08/17 11:01:45;;;;;;;3.17;2.97;;;;;;;33.87;39.94;99574.34;5070516;28;20186;-74
2022/08/17 11:04:27;;;;;;;5.05;3.75;;;;;;;34.12;39.53;99553.28;5070904;28;20206;-74
2022/08/17 11:07:07;;;;;;;5.10;3.60;;;;;;;34.36;39.63;99561.84;5071175;28;20206;-75
2022/08/17 11:09:57;;;;;;;4.30;3.90;;;;;;;34.66;38.94;99553.69;5071073;28;20209;-75
2022/08/17 11:12:38;;;;;;;7.57;4.18;;;;;;;34.65;38.48;99549.28;5070885;28;20198;-74
2022/08/17 11:15:21;;;;;;;3.65;3.13;;;;;;;34.60;37.08;99556.91;5071053;28;20580;-75
2022/08/17 11:18:09;;;;;;;4.45;3.83;;;;;;;34.61;37.75;99557.75;5071066;28;20499;-75
2022/08/17 11:21:12;;;;;;;4.47;4.05;;;;;;;34.63;37.53;99558.50;5070891;28;20201;-75
2022/08/17 11:23:56;;;;;;;5.10;4.05;;;;;;;34.34;38.16;99545.00;5047972;28;20225;-74
2022/08/17 11:26:28;;;;;;;4.18;3.78;;;;;;;34.74;37.52;99542.19;5047983;28;20217;-74
2022/08/17 11:28:58;;;;;;;3.95;3.65;;;;;;;34.68;36.98;99529.28;4998182;28;20664;-74
2022/08/17 11:31:32;;;;;;;3.85;3.55;;;;;;;34.77;36.40;99550.84;5047880;28;20289;-74
2022/08/17 11:34:03;;;;;;;3.80;3.45;;;;;;;34.68;36.70;99551.69;5047957;28;20584;-75
2022/08/17 11:37:03;;;;;;;5.47;4.07;;;;;;;34.81;36.62;99546.88;5047373;28;20230;-75
2022/08/17 11:40:04;;;;;;;3.90;3.50;;;;;;;34.77;36.37;99542.75;5047571;28;20210;-77
2022/08/17 11:42:42;;;;;;;3.42;3.08;;;;;;;34.75;36.01;99541.16;5047651;28;20332;-75
2022/08/17 11:45:29;;;;;;;5.75;3.70;;;;;;;34.95;35.55;99539.31;5047725;28;20195;-74
2022/08/17 11:54:00;;;;;;;3.58;3.08;;;;;;;35.00;35.18;99507.38;5047428;28;20206;-76
2022/08/17 11:56:34;;;;;;;3.42;3.05;;;;;;;34.98;34.85;99523.69;5047396;28;20195;-74
2022/08/17 11:59:01;;;;;;;4.35;3.42;;;;;;;33.97;34.36;99360.94;5047232;28;20222;-75
2022/08/17 12:01:54;;;;;;;3.25;3.05;;;;;;;35.26;34.49;99514.69;5063952;28;20597;-75
2022/08/17 12:04:27;;;;;;;3.47;3.28;;;;;;;35.36;34.35;99498.47;5047283;28;20209;-76
2022/08/17 12:07:00;;;;;;;4.43;3.28;;;;;;;35.44;34.43;99501.28;5047371;28;20199;-76
2022/08/17 12:09:30;;;;;;;5.43;2.90;;;;;;;35.46;34.48;99512.75;5047268;28;20195;-76
2022/08/17 12:12:00;;;;;;;6.03;3.45;;;;;;;35.32;35.33;99492.53;4997801;28;20199;-76
2022/08/17 12:14:31;;;;;;;8.13;3.30;;;;;;;35.67;34.82;99524.22;5047138;28;20194;-75
2022/08/17 12:17:00;;;;;;;5.70;3.17;;;;;;;35.86;33.66;99516.97;5047224;28;20199;-75
2022/08/17 12:19:28;;;;;;;4.07;3.45;;;;;;;35.47;34.35;99517.16;5047068;28;20210;-75
2022/08/17 12:22:02;;;;;;;4.22;3.78;;;;;;;35.50;34.32;99506.06;5030550;28;20195;-76
2022/08/17 12:24:45;;;;;;;4.43;3.58;;;;;;;35.68;33.01;99500.75;4997565;28;20183;-75
2022/08/17 12:27:19;;;;;;;3.83;3.60;;;;;;;35.88;33.11;99501.50;5047052;28;20620;-75
2022/08/17 12:29:55;;;;;;;4.00;3.67;;;;;;;36.06;32.91;99507.78;5047108;28;20694;-74
2022/08/17 12:32:28;;;;;;;3.95;3.28;;;;;;;36.34;32.92;99493.22;5046937;28;20206;-74
2022/08/17 12:34:54;;;;;;;3.47;3.17;;;;;;;36.51;31.45;99500.47;5046873;28;20246;-75
2022/08/17 12:37:28;;;;;;;4.18;3.70;;;;;;;36.41;31.68;99507.81;5046597;28;20246;-75
2022/08/17 12:39:59;;;;;;;4.15;3.20;;;;;;;36.46;31.45;99491.13;5046938;28;20190;-75
2022/08/17 12:42:29;;;;;;;4.25;3.95;;;;;;;36.68;31.61;99482.53;5068614;28;20205;-74
2022/08/17 12:44:57;;;;;;;3.92;3.67;;;;;;;36.58;31.51;99503.41;5069512;28;20228;-74
2022/08/17 12:47:24;;;;;;;6.20;3.50;;;;;;;36.53;31.95;99481.41;5069489;28;20194;-74
2022/08/17 12:49:53;;;;;;;4.38;3.63;;;;;;;36.40;31.45;99495.28;5069650;28;20202;-74
2022/08/17 12:52:25;;;;;;;4.47;3.50;;;;;;;36.51;31.90;99486.09;5069580;28;20198;-74
2022/08/17 12:54:55;;;;;;;3.85;3.33;;;;;;;36.74;31.05;99485.44;5069156;28;20662;-74
2022/08/17 12:57:26;;;;;;;4.22;3.58;;;;;;;36.74;30.72;99471.94;5069302;28;20202;-74